Pella, IA

10:24 AM CST on February 27, 2017 (GMT -0600)
Pella Municipal

Weather History for KPEA - November, 2012

Change the Weather History Date:

Thursday, November 15, 2012

  Actual Average (KOXV) Record (KOXV)
Temperature  
Mean Temperature 47 °F -  
Max Temperature 57 °F 48 °F 89 °F (1997)
Min Temperature 37 °F 30 °F 5 °F (1959)
Degree Days  
Heating Degree Days 18    
Moisture  
Dew Point 31 °F    
Average Humidity 57    
Maximum Humidity 81    
Minimum Humidity 38    
Precipitation  
Precipitation 0.00 in - - ()
Sea Level Pressure  
Sea Level Pressure 30.31 in    
Wind  
Wind Speed 7 mph (SW)    
Max Wind Speed 13 mph    
Max Gust Speed -    
Visibility 10 miles    
Events      
Averages and records for this station are not official NWS values.
T = Trace of Precipitation, MM = Missing Value Source: NWS Daily Summary

Daily Weather History Graph

Daily Weather History Graph

Search for Another Location

Airport or City:

Trip Planner

Search our weather history database for the weather conditions in past years. The results will help you decide how hot, cold, wet, or windy it might be!

Date:

Astronomy

Nov. 15, 2012 Rise Set
Actual Time 7:00 AM CST 4:51 PM CST
Civil Twilight 6:31 AM CST 5:21 PM CST
Nautical Twilight 5:57 AM CST 5:54 PM CST
Astronomical Twilight 5:24 AM CST 6:27 PM CST
Moon 8:57 AM CST (11/15) 6:43 PM CST (11/15)
Length of Visible Light 10h 50m
Length of Day
9h 50m
Waxing Crescent, 5% of the Moon is Illuminated
Nov 15
Waxing Crescent
Nov 20
First Quarter
Nov 28
Full
Dec 6
Last Quarter
Dec 13
New

Hourly Weather History & Observations

Time (CST) Temp. Windchill Dew Point Humidity Pressure Visibility Wind Dir Wind Speed Gust Speed Precip Events Conditions
12:15 AM 40.5 °F 36.5 °F 29.8 °F 66% 30.29 in 10.0 mi SSE 5.8 mph - N/A   Clear
12:35 AM 40.8 °F 36.2 °F 30.0 °F 65% 30.28 in 10.0 mi SSE 6.9 mph - N/A   Clear
12:55 AM 41.0 °F 35.8 °F 30.0 °F 65% 30.28 in 10.0 mi South 8.1 mph - N/A   Clear
1:15 AM 41.4 °F 35.7 °F 29.7 °F 63% 30.28 in 10.0 mi South 9.2 mph - N/A   Clear
1:35 AM 41.9 °F 35.9 °F 29.3 °F 61% 30.27 in 10.0 mi South 10.4 mph - N/A   Clear
1:55 AM 41.4 °F 35.7 °F 29.7 °F 63% 30.27 in 10.0 mi South 9.2 mph - N/A   Clear
2:15 AM 41.9 °F 35.9 °F 29.1 °F 61% 30.27 in 10.0 mi South 10.4 mph - N/A   Clear
2:35 AM 41.9 °F 35.9 °F 28.9 °F 60% 30.27 in 10.0 mi South 10.4 mph - N/A   Clear
2:55 AM 41.7 °F 36.7 °F 28.8 °F 60% 30.27 in 10.0 mi South 8.1 mph - N/A   Clear
3:15 AM 41.5 °F 36.4 °F 27.9 °F 58% 30.27 in 10.0 mi South 8.1 mph - N/A   Clear
3:35 AM 41.0 °F 36.4 °F 27.9 °F 60% 30.27 in 10.0 mi South 6.9 mph - N/A   Clear
3:55 AM 40.3 °F 35.5 °F 27.9 °F 61% 30.27 in 10.0 mi South 6.9 mph - N/A   Clear
4:15 AM 39.4 °F 35.2 °F 27.7 °F 63% 30.27 in 10.0 mi South 5.8 mph - N/A   Clear
4:35 AM 38.3 °F 33.9 °F 28.0 °F 67% 30.27 in 10.0 mi South 5.8 mph - N/A   Clear
4:55 AM 38.3 °F 33.9 °F 27.5 °F 65% 30.27 in 10.0 mi South 5.8 mph - N/A   Clear
5:15 AM 38.3 °F 33.9 °F 27.3 °F 65% 30.28 in 10.0 mi South 5.8 mph - N/A   Clear
5:35 AM 38.3 °F 33.2 °F 27.5 °F 65% 30.27 in 10.0 mi South 6.9 mph - N/A   Clear
5:55 AM 37.9 °F 33.5 °F 27.3 °F 66% 30.27 in 10.0 mi South 5.8 mph - N/A   Clear
6:15 AM 38.3 °F 33.9 °F 27.1 °F 64% 30.27 in 10.0 mi SSE 5.8 mph - N/A   Clear
6:35 AM 38.5 °F 34.1 °F 26.6 °F 62% 30.27 in 10.0 mi SSE 5.8 mph - N/A   Clear
6:55 AM 37.6 °F 33.1 °F 26.8 °F 65% 30.28 in 10.0 mi South 5.8 mph - N/A   Clear
7:15 AM 37.0 °F 31.6 °F 26.6 °F 66% 30.28 in 10.0 mi South 6.9 mph - N/A   Clear
7:35 AM 37.8 °F 33.3 °F 26.6 °F 64% 30.28 in 10.0 mi SSE 5.8 mph - N/A   Clear
7:55 AM 38.1 °F 33.7 °F 26.8 °F 64% 30.29 in 10.0 mi SSE 5.8 mph - N/A   Clear
8:15 AM 40.1 °F 35.3 °F 27.5 °F 61% 30.29 in 10.0 mi SSE 6.9 mph - N/A   Clear
8:35 AM 41.9 °F 36.9 °F 28.4 °F 59% 30.30 in 10.0 mi South 8.1 mph - N/A   Clear
8:55 AM 42.1 °F 38.4 °F 28.4 °F 58% 30.30 in 10.0 mi South 5.8 mph - N/A   Clear
9:15 AM 43.9 °F 39.9 °F 29.7 °F 57% 30.30 in 10.0 mi South 6.9 mph - N/A   Clear
9:35 AM 45.5 °F 42.5 °F 30.7 °F 56% 30.30 in 10.0 mi South 5.8 mph - N/A   Clear
9:55 AM 49.8 °F - 30.9 °F 48% 30.29 in 10.0 mi SSW 10.4 mph - N/A   Clear
10:15 AM 50.9 °F - 30.7 °F 46% 30.30 in 10.0 mi SW 9.2 mph - N/A   Clear
10:35 AM 50.9 °F - 30.2 °F 45% 30.30 in 10.0 mi WSW 8.1 mph - N/A   Clear
10:55 AM 52.0 °F - 31.1 °F 45% 30.30 in 10.0 mi West 6.9 mph - N/A   Clear
11:15 AM 53.8 °F - 31.1 °F 42% 30.30 in 10.0 mi WSW 8.1 mph - N/A   Clear
11:35 AM 53.8 °F - 31.3 °F 42% 30.29 in 10.0 mi West 8.1 mph - N/A   Clear
11:55 AM 52.5 °F - 31.5 °F 45% 30.29 in 10.0 mi West 8.1 mph - N/A   Clear
12:15 PM 54.5 °F - 32.2 °F 43% 30.29 in 10.0 mi SW 9.2 mph - N/A   Clear
12:35 PM 55.6 °F - 32.4 °F 41% 30.29 in 10.0 mi West 5.8 mph - N/A   Clear
12:55 PM 55.6 °F - 32.7 °F 42% 30.29 in 10.0 mi SW 6.9 mph - N/A   Clear
1:15 PM 56.3 °F - 32.0 °F 40% 30.28 in 10.0 mi West 9.2 mph - N/A   Clear
1:35 PM 55.4 °F - 32.2 °F 41% 30.28 in 10.0 mi West 6.9 mph - N/A   Clear
1:55 PM 56.7 °F - 32.0 °F 39% 30.28 in 10.0 mi West 8.1 mph - N/A   Clear
2:15 PM 57.2 °F - 31.8 °F 38% 30.27 in 10.0 mi West 6.9 mph - N/A   Clear
2:35 PM 57.9 °F - 32.4 °F 38% 30.27 in 10.0 mi WSW 6.9 mph - N/A   Clear
2:55 PM 57.6 °F - 32.0 °F 38% 30.28 in 10.0 mi West 8.1 mph - N/A   Clear
3:15 PM 57.6 °F - 32.2 °F 38% 30.28 in 10.0 mi WSW 5.8 mph - N/A   Clear
3:35 PM 57.7 °F - 32.5 °F 39% 30.28 in 10.0 mi West 4.6 mph - N/A   Clear
3:55 PM 57.2 °F - 32.9 °F 40% 30.29 in 10.0 mi West 4.6 mph - N/A   Clear
4:15 PM 56.3 °F - 32.4 °F 40% 30.29 in 10.0 mi WSW 3.5 mph - N/A   Clear
4:35 PM 55.4 °F - 32.0 °F 41% 30.30 in 10.0 mi Calm Calm - N/A   Clear
4:55 PM 54.0 °F - 32.0 °F 43% 30.30 in 10.0 mi Calm Calm - N/A   Clear
5:15 PM 53.4 °F - 32.0 °F 44% 30.31 in 10.0 mi WSW 3.5 mph - N/A   Clear
5:35 PM 52.3 °F - 32.0 °F 46% 30.31 in 10.0 mi Calm Calm - N/A   Clear
5:55 PM 48.9 °F - 32.2 °F 52% 30.32 in 7.0 mi Calm Calm - N/A   Clear
6:15 PM 47.1 °F - 32.5 °F 57% 30.33 in 10.0 mi Calm Calm - N/A   Clear
6:35 PM 48.9 °F - 32.4 °F 53% 30.33 in 10.0 mi WNW 4.6 mph - N/A   Clear
6:55 PM 44.8 °F 41.0 °F 32.9 °F 63% 30.34 in 10.0 mi NW 6.9 mph - N/A   Clear
7:15 PM 45.5 °F 40.8 °F 32.9 °F 61% 30.34 in 10.0 mi NNW 9.2 mph - N/A   Clear
7:35 PM 46.8 °F - 33.4 °F 60% 30.35 in 10.0 mi North 5.8 mph - N/A   Clear
7:55 PM 46.8 °F - 33.6 °F 60% 30.35 in 10.0 mi North 6.9 mph - N/A   Clear
8:15 PM 46.0 °F 41.9 °F 33.8 °F 62% 30.36 in 10.0 mi NNW 8.1 mph - N/A   Clear
8:35 PM 45.7 °F 41.0 °F 33.4 °F 62% 30.36 in 10.0 mi North 9.2 mph - N/A   Clear
8:55 PM 44.2 °F 39.7 °F 33.4 °F 66% 30.37 in 10.0 mi North 8.1 mph - N/A   Clear
9:15 PM 43.0 °F 38.2 °F 33.1 °F 68% 30.37 in 10.0 mi North 8.1 mph - N/A   Clear
9:17 PM 42.8 °F 38.0 °F 33.8 °F 70% 30.37 in 10.0 mi North 8.1 mph - N/A   Clear
9:35 PM 42.6 °F 37.2 °F 32.7 °F 68% 30.38 in 10.0 mi NNW 9.2 mph - N/A   Clear
9:55 PM 41.9 °F 35.0 °F 32.5 °F 69% 30.38 in 10.0 mi NNW 12.7 mph - N/A   Clear
10:15 PM 41.4 °F 35.2 °F 32.7 °F 71% 30.38 in 10.0 mi North 10.4 mph - N/A   Clear
10:35 PM 39.9 °F 33.9 °F 32.5 °F 75% 30.39 in 10.0 mi North 9.2 mph - N/A   Clear
10:55 PM 39.2 °F 33.0 °F 32.2 °F 76% 30.39 in 10.0 mi North 9.2 mph - N/A   Clear
11:15 PM 38.3 °F 33.9 °F 32.2 °F 79% 30.39 in 10.0 mi North 5.8 mph - N/A   Clear
11:35 PM 37.9 °F 33.5 °F 32.0 °F 79% 30.41 in 10.0 mi NNW 5.8 mph - N/A   Clear
11:55 PM 37.4 °F 31.4 °F 32.0 °F 81% 30.41 in 10.0 mi NNW 8.1 mph - N/A   Clear